Latest Weather Observations for Kalgoorlie-Boulder

IDW60801

Issued at 11:33 pm WST Tuesday 26 May 2015 (issued every 30 minutes, with the page automatically refreshed every 10 minutes)

About weather observations | Map of weather stations | Latest weather observations for WA | Other Formats
Station Details ID: 012038 Name: KALGOORLIE-BOULDER AIRPORT Lat: -30.78 Lon: 121.45 Height: 365.3 m
Data from the previous 72 hours. | See also: Recent months at Kalgoorlie-Boulder
Date/Time
WST
Temp
°C
App
Temp
°C
Dew
Point
Rel
Hum
%
Delta-T
°C
Wind Press
QNH
hPa
Press
MSL
hPa
Rain
since 9 am
mm
Dir
 
Spd
km/h
Gust
km/h
Spd
kts
Gust
kts
26/11:30pm 10.5 7.8 3.6 62 3.1 S 7 9 4 5 1022.6 - 0.0
26/11:00pm 10.8 7.7 3.7 61 3.2 S 9 11 5 6 1022.7 - 0.0
26/10:30pm 11.8 8.4 3.9 58 3.6 S 11 15 6 8 1022.8 - 0.0
26/10:00pm 13.0 9.6 3.8 53 4.2 S 11 13 6 7 1022.7 - 0.0
26/09:30pm 13.4 10.0 3.8 52 4.4 S 11 13 6 7 1022.7 - 0.0
26/09:00pm 13.3 9.9 4.2 54 4.2 S 11 13 6 7 1022.7 1022.3 0.0
26/08:30pm 14.0 10.2 3.8 50 4.7 S 13 15 7 8 1022.7 - 0.0
26/08:00pm 13.9 11.5 4.2 52 4.5 S 6 9 3 5 1022.6 - 0.0
26/07:30pm 15.1 11.3 4.0 47 5.2 SSW 13 15 7 8 1022.3 - 0.0
26/07:00pm 15.3 12.0 4.3 48 5.2 SSW 11 13 6 7 1022.0 - 0.0
26/06:30pm 15.6 12.7 4.7 48 5.2 SSW 9 11 5 6 1021.8 - 0.0
26/06:00pm 17.0 14.2 5.1 45 5.8 SSW 9 11 5 6 1021.6 1021.1 0.0
26/05:30pm 17.4 14.6 5.1 44 6.0 SSW 9 11 5 6 1021.2 - 0.0
26/05:00pm 19.5 16.2 4.6 37 7.3 SSW 11 17 6 9 1020.9 - 0.0
26/04:30pm 20.9 17.2 4.5 34 8.1 WSW 13 17 7 9 1020.7 - 0.0
26/04:00pm 21.4 17.8 5.0 34 8.2 W 13 19 7 10 1020.7 - 0.0
26/03:30pm 21.4 17.9 5.6 35 8.0 WSW 13 19 7 10 1020.7 - 0.0
26/03:00pm 22.4 18.3 4.3 30 9.0 WSW 15 26 8 14 1020.6 1020.1 0.0
26/02:30pm 22.3 19.9 7.0 37 8.0 W 9 17 5 9 1020.7 - 0.0
26/02:00pm 22.2 17.7 6.3 35 8.2 W 19 22 10 12 1020.8 - 0.0
26/01:30pm 21.5 19.2 7.4 40 7.4 SSW 9 17 5 9 1020.9 - 0.0
26/01:00pm 20.5 17.8 7.2 42 6.9 WSW 11 19 6 10 1021.2 - 0.0
26/12:30pm 20.1 17.0 7.1 43 6.7 SSW 13 19 7 10 1021.4 - 0.0
26/11:30am 18.7 16.0 7.4 47 5.8 SSW 11 17 6 9 1022.3 - 0.0
26/11:00am 18.8 16.6 7.8 48 5.7 WSW 9 15 5 8 1022.7 - 0.0
26/10:30am 17.7 15.5 8.0 53 5.0 WSW 9 11 5 6 1022.9 - 0.0
26/10:00am 17.4 14.6 8.4 55 4.7 W 13 19 7 10 1023.4 - 0.0
26/09:00am 16.5 13.8 10.4 67 3.3 WNW 15 22 8 12 1023.4 1022.9 0.0
26/08:00am 14.1 11.2 10.9 81 1.7 NW 17 26 9 14 1022.9 - 0.0
26/07:30am 12.8 10.2 10.7 87 1.1 NNW 15 20 8 11 1022.7 - 0.0
26/07:00am 11.7 9.4 10.4 92 0.7 NNW 13 19 7 10 1022.5 - 0.0
26/06:30am 10.5 8.4 9.7 95 0.4 N 11 13 6 7 1022.2 - 0.0
26/05:30am 10.2 8.8 9.4 95 0.4 N 7 9 4 5 1021.5 - 0.0
26/05:00am 10.1 8.6 9.3 95 0.4 N 7 9 4 5 1021.3 - 0.0
26/04:30am 10.2 8.8 9.6 96 0.3 NNW 7 7 4 4 1021.3 - 0.0
26/04:00am 10.1 8.6 9.1 93 0.5 N 7 9 4 5 1021.2 - 0.0
26/03:30am 10.3 9.0 9.3 93 0.5 N 6 7 3 4 1021.3 - 0.0
26/03:00am 11.1 9.9 9.5 90 0.8 NNW 6 7 3 4 1021.5 1021.0 0.0
26/02:30am 11.3 9.8 9.3 87 1.0 NNW 7 9 4 5 1021.5 - 0.0
26/02:00am 11.8 10.3 9.3 85 1.3 N 7 9 4 5 1021.5 - 0.0
26/01:30am 12.3 10.1 9.4 82 1.5 N 11 13 6 7 1021.6 - 0.0
26/01:00am 12.9 10.7 9.4 79 1.8 N 11 13 6 7 1021.5 - 0.0
26/12:30am 13.4 10.8 9.3 76 2.1 N 13 17 7 9 1021.6 - 0.0
26/12:00am 13.7 11.0 8.8 72 2.5 N 13 15 7 8 1021.6 1021.1 0.0
 
Date/Time
WST
Temp
°C
App
Temp
°C
Dew
Point
Rel
Hum
%
Delta-T
°C
Wind Press
QNH
hPa
Press
MSL
hPa
Rain
since 9 am
mm
Dir
 
Spd
km/h
Gust
km/h
Spd
kts
Gust
kts
25/11:30pm 13.9 11.1 7.0 63 3.4 N 11 15 6 8 1021.6 - 0.0
25/11:00pm 13.4 11.0 7.1 65 3.1 N 9 13 5 7 1021.7 - 0.0
25/10:30pm 13.9 11.5 7.0 63 3.4 N 9 13 5 7 1021.7 - 0.0
25/10:00pm 14.1 11.7 7.0 62 3.5 N 9 11 5 6 1021.6 - 0.0
25/09:30pm 14.9 12.5 7.1 59 3.9 NNE 9 13 5 7 1021.6 - 0.0
25/09:00pm 14.8 12.4 7.0 59 3.9 N 9 13 5 7 1021.7 1021.2 0.0
25/08:30pm 15.2 12.8 7.0 58 4.1 N 9 11 5 6 1021.8 - 0.0
25/08:00pm 15.3 13.3 6.9 57 4.2 N 7 9 4 5 1021.8 - 0.0
25/07:30pm 15.6 15.1 8.0 60 3.9 CALM 0 0 0 0 1021.7 - 0.0
25/07:00pm 16.0 15.1 7.8 58 4.2 NNE 2 7 1 4 1021.2 - 0.0
25/06:30pm 16.9 15.1 7.2 52 4.9 NNE 6 9 3 5 1021.0 - 0.0
25/06:00pm 18.0 15.4 6.0 45 6.0 NNE 9 11 5 6 1020.9 1020.4 0.0
25/05:30pm 19.0 15.6 6.1 43 6.5 NE 13 20 7 11 1020.7 - 0.0
25/05:00pm 19.9 16.2 6.1 40 7.0 NE 15 20 8 11 1020.2 - 0.0
25/04:30pm 21.4 17.9 3.5 31 8.7 NNE 11 13 6 7 1019.9 - 0.0
25/04:00pm 22.0 18.7 2.7 28 9.3 N 9 17 5 9 1019.8 - 0.0
25/03:30pm 22.6 19.4 3.1 28 9.5 NNW 9 13 5 7 1019.8 - 0.0
25/03:00pm 22.6 19.8 3.4 28 9.4 ENE 7 17 4 9 1019.7 1019.3 0.0
25/02:30pm 22.4 19.8 4.3 30 9.0 E 7 13 4 7 1019.8 - 0.0
25/02:00pm 21.7 19.5 5.2 34 8.3 ENE 6 11 3 6 1019.9 - 0.0
25/01:30pm 21.5 20.6 7.6 40 7.3 SE 2 9 1 5 1020.0 - 0.0
25/01:00pm 21.1 18.3 7.0 40 7.3 NNE 11 17 6 9 1020.5 - 0.0
25/12:30pm 21.3 19.5 7.8 41 7.1 NW 7 15 4 8 1020.9 - 0.0
25/12:00pm 21.5 19.3 9.3 45 6.6 NNE 11 15 6 8 1021.2 1020.7 0.0
25/11:30am 21.1 18.6 9.7 48 6.2 N 13 19 7 10 1021.7 - 0.0
25/11:00am 20.6 19.2 10.9 53 5.4 NNW 9 15 5 8 1022.2 - 0.0
25/10:30am 19.6 18.6 10.9 57 4.8 NNE 7 13 4 7 1022.5 - 0.0
25/10:00am 18.0 17.1 10.7 62 4.0 NNE 6 9 3 5 1022.7 - 0.0
25/09:30am 16.2 14.9 10.0 66 3.3 N 7 9 4 5 1022.8 - 0.0
25/09:00am 14.9 13.9 8.7 66 3.2 NNE 4 7 2 4 1022.8 1022.4 0.0
25/08:30am 12.7 12.2 7.9 72 2.4 CALM 0 0 0 0 1022.9 - 0.0
25/08:00am 10.7 8.9 7.0 78 1.8 SE 6 7 3 4 1022.7 - 0.0
25/07:30am 9.5 7.4 6.8 83 1.3 ESE 7 9 4 5 1022.7 - 0.0
25/07:00am 6.9 5.4 5.1 88 0.8 S 2 6 1 3 1022.4 - 0.0
25/06:30am 7.3 6.3 5.5 88 0.8 CALM 0 0 0 0 1022.2 - 0.0
25/06:00am 7.9 5.7 6.2 89 0.8 S 7 9 4 5 1022.1 1021.7 0.0
25/05:30am 8.1 6.1 6.2 88 0.9 SE 6 7 3 4 1021.7 - 0.0
25/05:00am 8.4 6.2 6.0 85 1.1 SSE 7 9 4 5 1021.6 - 0.0
25/04:30am 8.8 6.2 6.2 84 1.2 SE 9 11 5 6 1021.4 - 0.0
25/04:00am 9.4 6.9 6.4 81 1.4 SE 9 11 5 6 1021.3 - 0.0
25/03:30am 9.1 7.1 6.3 83 1.3 ESE 6 7 3 4 1021.3 - 0.0
25/03:00am 9.3 7.0 5.9 79 1.6 SE 7 11 4 6 1021.5 1021.0 0.0
25/02:30am 9.4 6.8 6.0 79 1.6 SE 9 11 5 6 1021.6 - 0.0
25/02:00am 10.3 7.7 6.3 76 1.9 SE 9 11 5 6 1021.6 - 0.0
25/01:30am 10.2 7.6 5.9 74 2.0 SE 9 11 5 6 1021.5 - 0.0
25/01:00am 10.4 7.8 5.9 73 2.1 SE 9 9 5 5 1021.4 - 0.0
25/12:30am 11.1 8.4 5.8 70 2.5 SSE 9 13 5 7 1021.4 - 0.0
25/12:00am 11.1 8.3 5.3 67 2.7 SSE 9 11 5 6 1021.5 1021.0 0.0
 
Date/Time
WST
Temp
°C
App
Temp
°C
Dew
Point
Rel
Hum
%
Delta-T
°C
Wind Press
QNH
hPa
Press
MSL
hPa
Rain
since 9 am
mm
Dir
 
Spd
km/h
Gust
km/h
Spd
kts
Gust
kts
24/11:30pm 11.1 8.3 5.1 66 2.8 SE 9 11 5 6 1021.6 - 0.0
24/11:00pm 10.9 8.4 4.8 66 2.8 ESE 7 9 4 5 1021.7 - 0.0
24/10:30pm 11.3 8.2 3.8 60 3.4 SE 9 13 5 7 1021.8 - 0.0
24/10:00pm 11.2 8.7 3.9 61 3.3 SE 6 7 3 4 1021.8 - 0.0
24/09:30pm 11.6 8.9 3.6 58 3.6 SSE 7 9 4 5 1021.7 - 0.0
24/09:00pm 12.4 9.2 3.3 54 4.1 SE 9 11 5 6 1021.5 1021.0 0.0
24/08:30pm 12.3 9.6 3.5 55 4.0 SE 7 7 4 4 1021.5 - 0.0
24/08:00pm 13.7 10.6 3.4 50 4.7 ESE 9 11 5 6 1021.3 - 0.0
24/07:30pm 14.5 11.4 3.7 48 5.0 SE 9 11 5 6 1021.2 - 0.0
24/07:00pm 15.3 11.8 3.7 46 5.4 SE 11 13 6 7 1021.1 - 0.0
24/06:30pm 17.3 13.6 2.6 37 6.8 SSE 11 17 6 9 1020.8 - 0.0
24/06:00pm 17.5 13.9 2.9 37 6.8 SSE 11 15 6 8 1020.6 1020.1 0.0
24/05:30pm 16.7 13.6 3.5 41 6.2 SSE 9 11 5 6 1020.3 - 0.0
24/05:00pm 19.0 15.9 3.5 35 7.4 SSE 9 13 5 7 1020.0 - 0.0
24/04:30pm 20.4 16.8 2.8 31 8.4 SSE 11 17 6 9 1019.8 - 0.0
24/04:00pm 21.3 17.7 3.0 30 8.8 SSE 11 19 6 10 1019.6 - 0.0
24/03:30pm 21.3 18.2 3.7 31 8.6 SSE 9 17 5 9 1019.5 - 0.0
24/03:00pm 21.4 18.0 3.8 31 8.6 SSE 11 15 6 8 1019.4 1018.9 0.0
24/02:30pm 22.0 18.6 3.9 30 8.9 S 11 17 6 9 1019.4 - 0.0
24/02:00pm 21.6 18.4 5.1 34 8.3 SSE 11 19 6 10 1019.3 - 0.0
24/01:30pm 21.5 19.2 5.5 35 8.1 WSW 7 9 4 5 1019.4 - 0.0
24/01:00pm 21.0 17.1 5.3 36 7.9 SE 15 22 8 12 1019.8 - 0.0
24/12:30pm 20.9 17.8 5.4 36 7.8 ESE 11 19 6 10 1020.1 - 0.0
24/12:00pm 20.2 15.9 5.1 37 7.5 ESE 17 24 9 13 1020.5 1020.0 0.0
24/11:30am 20.0 15.6 4.8 36 7.5 ESE 17 24 9 13 1020.9 - 0.0
24/11:00am 19.3 14.9 4.9 38 7.1 ESE 17 22 9 12 1021.3 - 0.0
24/10:30am 18.3 13.6 5.0 41 6.5 SE 19 24 10 13 1021.5 - 0.0
24/10:00am 17.2 12.5 5.3 45 5.8 SE 19 24 10 13 1021.8 - 0.0
24/09:30am 15.7 11.1 5.6 51 4.9 ESE 19 26 10 14 1021.9 - 0.0
24/09:00am 14.5 10.4 6.1 57 4.1 SE 17 20 9 11 1021.8 1021.3 0.0
24/08:30am 13.3 10.0 6.3 62 3.4 ESE 13 17 7 9 1021.5 - 0.0
24/08:00am 11.7 9.2 6.5 70 2.5 SE 9 13 5 7 1021.2 - 0.0
24/07:30am 9.7 7.7 6.3 79 1.6 SE 6 9 3 5 1020.9 - 0.0
24/07:00am 7.5 5.3 5.5 87 0.9 SSE 6 9 3 5 1020.7 - 0.0
24/06:30am 7.3 5.1 5.3 87 0.9 SSE 6 7 3 4 1020.5 - 0.0
24/06:00am 7.9 5.6 5.5 85 1.1 S 7 9 4 5 1020.3 1019.9 0.0
24/05:30am 8.0 5.3 5.4 84 1.2 S 9 11 5 6 1020.1 - 0.0
24/05:00am 8.5 5.4 5.7 82 1.3 S 11 13 6 7 1020.0 - 0.0
24/04:30am 8.9 6.8 5.9 81 1.4 S 6 7 3 4 1019.6 - 0.0
24/04:00am 8.6 6.3 5.8 82 1.3 SSW 7 9 4 5 1019.4 - 0.0
24/03:30am 9.2 6.9 5.8 79 1.6 S 7 11 4 6 1019.2 - 0.0
24/03:00am 10.2 7.6 6.0 75 2.0 SSW 9 13 5 7 1019.2 1018.7 0.0
24/02:30am 10.8 7.4 5.9 72 2.3 SSW 13 17 7 9 1019.2 - 0.0
24/02:00am 10.9 9.0 6.5 74 2.1 S 6 11 3 6 1019.0 - 0.0
24/01:30am 10.6 8.1 6.4 75 2.0 SW 9 13 5 7 1019.0 - 0.0
24/01:00am 11.7 9.3 7.0 73 2.3 W 9 13 5 7 1019.0 - 0.0
24/12:30am 12.9 8.9 6.5 65 3.1 SW 17 22 9 12 1018.9 - 0.0
24/12:00am 11.7 9.3 7.0 73 2.3 WNW 9 13 5 7 1018.9 1018.4 0.0

Other Formats:

Comma delimited format used in spreadsheet applications
http://www.bom.gov.au/fwo/IDW60801/IDW60801.94637.axf

JavaScript Object Notation format (JSON) in row-major order
http://www.bom.gov.au/fwo/IDW60801/IDW60801.94637.json